createdAt,value
2018-04-11T00:02:06.669Z,12.60
2018-04-11T00:04:35.564Z,12.60
2018-04-11T00:07:04.466Z,12.50
2018-04-11T00:09:34.551Z,12.50
2018-04-11T00:12:04.244Z,12.40
2018-04-11T00:14:33.192Z,12.40
2018-04-11T00:17:02.867Z,12.40
2018-04-11T00:19:31.891Z,12.40
2018-04-11T00:22:01.536Z,12.30
2018-04-11T00:24:30.604Z,12.30
2018-04-11T00:27:01.004Z,12.30
2018-04-11T00:29:30.038Z,12.30
2018-04-11T00:31:58.937Z,12.40
2018-04-11T00:34:27.896Z,12.30
2018-04-11T00:36:56.814Z,12.30
2018-04-11T00:39:25.758Z,12.30
2018-04-11T00:41:54.651Z,12.20
2018-04-11T00:44:23.532Z,12.20
2018-04-11T00:46:52.457Z,12.10
2018-04-11T00:49:21.375Z,12.10
2018-04-11T00:51:50.281Z,12.10
2018-04-11T00:54:19.192Z,12.10
2018-04-11T00:56:48.098Z,12.10
2018-04-11T00:59:16.981Z,12.20
2018-04-11T01:01:46.339Z,12.30
2018-04-11T01:04:15.319Z,12.20
2018-04-11T01:06:44.292Z,12.10
2018-04-11T01:09:13.170Z,12.20
2018-04-11T01:11:43.021Z,12.00
2018-04-11T01:14:12.024Z,12.00
2018-04-11T01:16:41.167Z,12.10
2018-04-11T01:19:10.065Z,12.10
2018-04-11T01:21:40.193Z,12.10
2018-04-11T01:24:10.367Z,12.20
2018-04-11T01:26:39.497Z,12.10
2018-04-11T01:29:09.368Z,12.10
2018-04-11T01:31:38.312Z,12.10
2018-04-11T01:34:07.187Z,12.10
2018-04-11T01:36:36.341Z,12.00
2018-04-11T01:39:05.456Z,12.10
2018-04-11T01:41:34.372Z,11.90
2018-04-11T01:44:03.275Z,11.80
2018-04-11T01:46:33.296Z,11.90
2018-04-11T01:49:02.961Z,11.90
2018-04-11T01:51:31.859Z,11.90
2018-04-11T01:54:00.913Z,12.00
2018-04-11T01:56:30.025Z,11.90
2018-04-11T01:58:59.385Z,11.70
2018-04-11T02:01:28.479Z,11.70
2018-04-11T02:03:57.378Z,11.60
2018-04-11T02:06:26.297Z,11.70
2018-04-11T02:08:55.199Z,11.70
2018-04-11T02:11:24.181Z,11.60
2018-04-11T02:13:53.239Z,11.60
2018-04-11T02:16:22.982Z,11.60
2018-04-11T02:18:52.011Z,11.60
2018-04-11T02:21:21.260Z,11.50
2018-04-11T02:23:50.344Z,11.50
2018-04-11T02:26:19.290Z,11.50
2018-04-11T02:28:48.425Z,11.60
2018-04-11T02:31:18.156Z,11.50
2018-04-11T02:33:47.047Z,11.50
2018-04-11T02:36:15.986Z,11.70
2018-04-11T02:38:45.017Z,11.70
2018-04-11T02:41:14.010Z,11.70
2018-04-11T02:43:42.900Z,11.60
2018-04-11T02:46:12.570Z,11.60
2018-04-11T02:48:41.460Z,11.60
2018-04-11T02:51:10.523Z,11.60
2018-04-11T02:53:39.548Z,11.60
2018-04-11T02:56:08.434Z,11.50
2018-04-11T02:58:37.517Z,11.40
2018-04-11T03:01:06.393Z,11.50
2018-04-11T03:03:35.248Z,11.50
2018-04-11T03:06:04.860Z,11.50
2018-04-11T03:08:34.645Z,11.40
2018-04-11T03:11:05.021Z,11.40
2018-04-11T03:13:33.924Z,11.40
2018-04-11T03:16:02.990Z,11.40
2018-04-11T03:18:31.886Z,11.40
2018-04-11T03:21:00.778Z,11.50
2018-04-11T03:23:29.710Z,11.50
2018-04-11T03:25:58.590Z,11.70
2018-04-11T03:28:27.515Z,11.50
2018-04-11T03:30:56.440Z,11.50
2018-04-11T03:33:25.391Z,11.50
2018-04-11T03:35:54.248Z,11.50
2018-04-11T03:38:23.210Z,11.40
2018-04-11T03:40:52.085Z,11.40
2018-04-11T03:43:21.734Z,11.40
2018-04-11T03:45:50.791Z,11.40
2018-04-11T03:48:20.489Z,11.30
2018-04-11T03:50:49.516Z,11.30
2018-04-11T03:53:18.569Z,11.20
2018-04-11T03:55:47.880Z,11.20
2018-04-11T03:58:17.532Z,11.30
2018-04-11T04:00:46.449Z,11.20
2018-04-11T04:03:15.407Z,11.30
2018-04-11T04:05:44.299Z,11.30
2018-04-11T04:08:13.217Z,11.20
2018-04-11T04:10:42.101Z,11.30
2018-04-11T04:13:11.008Z,11.30
2018-04-11T04:15:57.504Z,11.30
2018-04-11T04:18:44.156Z,11.30
2018-04-11T04:21:13.826Z,11.20
2018-04-11T04:23:43.284Z,11.20
2018-04-11T04:26:12.257Z,11.20
2018-04-11T04:28:41.216Z,11.20
2018-04-11T04:31:10.167Z,11.20
2018-04-11T04:33:39.093Z,11.30
2018-04-11T04:36:08.508Z,11.30
2018-04-11T04:38:37.428Z,11.20
2018-04-11T04:41:07.143Z,11.10
2018-04-11T04:43:36.172Z,11.10
2018-04-11T04:46:05.359Z,11.10
2018-04-11T04:48:34.274Z,11.00
2018-04-11T04:51:03.319Z,11.00
2018-04-11T04:53:32.328Z,11.10
2018-04-11T04:56:01.242Z,11.20
2018-04-11T04:58:30.686Z,11.20
2018-04-11T05:00:59.978Z,11.40
2018-04-11T05:03:33.235Z,11.40
2018-04-11T05:06:02.594Z,11.40
2018-04-11T05:08:31.567Z,11.50
2018-04-11T05:11:01.268Z,11.60
2018-04-11T05:13:30.980Z,11.70
2018-04-11T05:16:00.165Z,11.70
2018-04-11T05:18:29.833Z,11.90
2018-04-11T05:20:58.927Z,12.20
2018-04-11T05:23:27.828Z,12.40
2018-04-11T05:25:56.734Z,12.30
2018-04-11T05:28:25.837Z,12.60
2018-04-11T05:30:54.912Z,12.80
2018-04-11T05:33:23.864Z,13.10
2018-04-11T05:35:52.790Z,13.20
2018-04-11T05:38:21.957Z,13.10
2018-04-11T05:40:50.953Z,12.80
2018-04-11T05:43:20.170Z,12.80
2018-04-11T05:45:49.168Z,12.70
2018-04-11T05:48:18.121Z,12.60
2018-04-11T05:50:47.037Z,12.70
2018-04-11T05:53:15.959Z,12.70
2018-04-11T05:55:44.941Z,12.60
2018-04-11T05:58:13.994Z,12.70
2018-04-11T06:00:43.740Z,13.30
2018-04-11T06:03:12.820Z,13.30
2018-04-11T06:05:42.109Z,13.70
2018-04-11T06:08:11.060Z,14.20
2018-04-11T06:10:40.048Z,14.60
2018-04-11T06:13:09.141Z,15.50
2018-04-11T06:15:38.068Z,16.10
2018-04-11T06:18:07.729Z,16.60
2018-04-11T06:20:36.660Z,16.60
2018-04-11T06:23:05.593Z,16.90
2018-04-11T06:25:35.627Z,17.70
2018-04-11T06:28:04.709Z,17.70
2018-04-11T06:30:33.591Z,17.70
2018-04-11T06:33:02.481Z,17.20
2018-04-11T06:35:31.345Z,17.00
2018-04-11T06:38:00.414Z,17.70
2018-04-11T06:40:30.275Z,17.90
2018-04-11T06:42:59.232Z,17.90
2018-04-11T06:45:28.112Z,18.00
2018-04-11T06:47:57.077Z,18.50
2018-04-11T06:50:25.956Z,18.50
2018-04-11T06:52:54.808Z,18.60
2018-04-11T06:55:24.620Z,19.40
2018-04-11T06:57:54.304Z,19.30
2018-04-11T07:00:23.449Z,19.30
2018-04-11T07:02:52.363Z,19.60
2018-04-11T07:05:21.413Z,19.50
2018-04-11T07:07:51.327Z,19.30
2018-04-11T07:10:20.437Z,19.30
2018-04-11T07:12:49.353Z,19.30
2018-04-11T07:15:18.250Z,19.40
2018-04-11T07:17:47.168Z,19.40
2018-04-11T07:20:16.105Z,19.80
2018-04-11T07:22:45.015Z,19.80
2018-04-11T07:25:13.964Z,20.50
2018-04-11T07:27:43.948Z,20.10
2018-04-11T07:30:12.877Z,20.00
2018-04-11T07:32:42.612Z,19.50
2018-04-11T07:35:11.790Z,19.50
2018-04-11T07:37:40.697Z,19.40
2018-04-11T07:40:09.715Z,19.50
2018-04-11T07:42:38.680Z,20.20
2018-04-11T07:45:07.528Z,20.30
2018-04-11T07:47:36.458Z,20.10
2018-04-11T07:50:05.372Z,19.50
2018-04-11T07:52:34.305Z,18.80
2018-04-11T07:55:03.458Z,18.80
2018-04-11T07:57:32.463Z,19.50
2018-04-11T08:00:01.358Z,20.00
2018-04-11T08:02:30.319Z,20.50
2018-04-11T08:04:59.242Z,19.90
2018-04-11T08:07:28.140Z,20.10
2018-04-11T08:09:57.077Z,20.00
2018-04-11T08:12:26.124Z,20.00
2018-04-11T08:14:55.093Z,20.20
2018-04-11T08:17:24.049Z,20.10
2018-04-11T08:19:52.977Z,20.30
2018-04-11T08:22:21.877Z,20.60
2018-04-11T08:24:50.791Z,20.90
2018-04-11T08:27:20.269Z,20.60
2018-04-11T08:29:49.277Z,21.00
2018-04-11T08:32:18.205Z,20.40
2018-04-11T08:34:47.140Z,20.40
2018-04-11T08:37:16.034Z,20.00
2018-04-11T08:39:44.983Z,20.50
2018-04-11T08:42:13.920Z,20.60
2018-04-11T08:44:43.135Z,20.50
2018-04-11T08:47:12.095Z,19.70
2018-04-11T08:49:41.076Z,20.00
2018-04-11T08:52:09.953Z,20.30
2018-04-11T08:54:39.200Z,20.20
2018-04-11T08:57:08.099Z,20.40
2018-04-11T08:59:37.076Z,20.40
2018-04-11T09:02:05.999Z,20.40
2018-04-11T09:04:34.890Z,20.10
2018-04-11T09:07:03.811Z,19.70
2018-04-11T09:09:32.768Z,19.40
2018-04-11T09:12:01.867Z,19.10
2018-04-11T09:14:30.817Z,19.00
2018-04-11T09:16:59.691Z,18.80
2018-04-11T09:19:28.591Z,19.00
2018-04-11T09:21:57.487Z,19.30
2018-04-11T09:24:26.406Z,19.70
2018-04-11T09:26:55.321Z,19.60
2018-04-11T09:29:24.217Z,19.60
2018-04-11T09:31:53.918Z,19.00
2018-04-11T09:34:22.752Z,19.00
2018-04-11T09:36:51.633Z,18.80
2018-04-11T09:39:20.564Z,18.60
2018-04-11T09:41:49.496Z,18.60
2018-04-11T09:44:19.168Z,18.80
2018-04-11T09:46:48.086Z,18.80
2018-04-11T09:49:17.775Z,18.70
2018-04-11T09:51:46.706Z,18.70
2018-04-11T09:54:15.655Z,18.30
2018-04-11T09:56:44.584Z,18.50
2018-04-11T09:59:13.460Z,18.50
2018-04-11T10:01:48.606Z,18.60
2018-04-11T10:04:18.354Z,18.60
2018-04-11T10:06:47.253Z,18.60
2018-04-11T10:09:16.186Z,18.90
2018-04-11T10:11:45.149Z,18.90
2018-04-11T10:14:14.028Z,18.80
2018-04-11T10:16:42.976Z,19.10
2018-04-11T10:19:11.821Z,20.00
2018-04-11T10:21:40.796Z,20.70
2018-04-11T10:24:10.539Z,21.20
2018-04-11T10:26:39.448Z,21.10
2018-04-11T10:29:09.113Z,21.20
2018-04-11T10:31:38.049Z,21.20
2018-04-11T10:34:07.710Z,21.80
2018-04-11T10:36:36.590Z,21.80
2018-04-11T10:39:06.238Z,21.90
2018-04-11T10:41:35.150Z,21.80
2018-04-11T10:44:04.011Z,21.70
2018-04-11T10:46:32.942Z,22.20
2018-04-11T10:49:01.795Z,22.10
2018-04-11T10:51:30.658Z,21.50
2018-04-11T10:53:59.557Z,21.90
2018-04-11T10:56:28.495Z,22.20
2018-04-11T10:58:58.262Z,22.00
2018-04-11T11:01:27.297Z,21.90
2018-04-11T11:03:56.326Z,21.60
2018-04-11T11:06:25.198Z,21.30
2018-04-11T11:08:54.226Z,21.40
2018-04-11T11:11:23.857Z,20.90
2018-04-11T11:13:52.722Z,20.90
2018-04-11T11:16:21.831Z,21.00
2018-04-11T11:18:50.669Z,20.70
2018-04-11T11:21:19.547Z,21.00
2018-04-11T11:23:49.477Z,20.80
2018-04-11T11:26:18.413Z,20.80
2018-04-11T11:28:47.320Z,21.00
2018-04-11T11:31:16.604Z,21.30
2018-04-11T11:33:45.512Z,21.10
2018-04-11T11:36:14.388Z,20.90
2018-04-11T11:38:43.366Z,20.70
2018-04-11T11:41:12.213Z,20.80
2018-04-11T11:43:41.949Z,20.80
2018-04-11T11:46:11.056Z,20.80
2018-04-11T11:48:40.001Z,20.50
2018-04-11T11:51:09.649Z,20.50
2018-04-11T11:53:38.659Z,20.50
2018-04-11T11:56:07.534Z,20.60
2018-04-11T11:58:36.529Z,20.60
2018-04-11T12:01:05.437Z,20.70
2018-04-11T12:03:34.301Z,20.80
2018-04-11T12:06:03.187Z,20.80
2018-04-11T12:08:32.138Z,20.60
2018-04-11T12:11:01.816Z,20.40
2018-04-11T12:13:30.685Z,20.40
2018-04-11T12:15:59.568Z,20.30
2018-04-11T12:18:28.454Z,20.40
2018-04-11T12:20:57.350Z,20.50
2018-04-11T12:23:26.264Z,20.60
2018-04-11T12:25:55.586Z,20.80
2018-04-11T12:28:24.535Z,20.60
2018-04-11T12:30:53.486Z,20.50
2018-04-11T12:33:22.419Z,20.70
2018-04-11T12:35:51.359Z,20.80
2018-04-11T12:38:20.260Z,20.90
2018-04-11T12:40:49.901Z,20.50
2018-04-11T12:43:18.832Z,20.50
2018-04-11T12:45:47.954Z,20.40
2018-04-11T12:48:17.612Z,20.20
2018-04-11T12:50:46.553Z,20.20
2018-04-11T12:53:15.452Z,20.20
2018-04-11T12:55:44.434Z,20.20
2018-04-11T12:58:13.383Z,20.30
2018-04-11T13:00:42.356Z,20.40
2018-04-11T13:03:11.229Z,20.40
2018-04-11T13:05:40.962Z,20.30
2018-04-11T13:08:09.946Z,20.30
2018-04-11T13:10:38.849Z,20.40
2018-04-11T13:13:07.717Z,20.50
2018-04-11T13:15:37.440Z,20.50
2018-04-11T13:18:06.330Z,20.50
2018-04-11T13:20:35.777Z,20.70
2018-04-11T13:23:04.696Z,20.80
2018-04-11T13:25:34.314Z,20.80
2018-04-11T13:28:03.200Z,20.80
2018-04-11T13:30:32.094Z,20.80
2018-04-11T13:33:00.998Z,20.60
2018-04-11T13:35:29.889Z,20.50
2018-04-11T13:37:58.764Z,20.70
2018-04-11T13:40:28.439Z,20.30
2018-04-11T13:42:57.382Z,20.30
2018-04-11T13:45:27.036Z,20.20
2018-04-11T13:47:55.931Z,20.10
2018-04-11T13:50:25.021Z,20.20
2018-04-11T13:52:53.968Z,20.30
2018-04-11T13:55:22.856Z,20.30
2018-04-11T13:57:51.799Z,20.30
2018-04-11T14:00:20.677Z,20.30
2018-04-11T14:02:49.573Z,20.20
2018-04-11T14:05:18.585Z,20.20
2018-04-11T14:07:47.552Z,20.20
2018-04-11T14:10:16.553Z,20.40
2018-04-11T14:12:45.440Z,20.40
2018-04-11T14:15:14.377Z,20.40
2018-04-11T14:17:43.284Z,20.30
2018-04-11T14:20:12.161Z,20.30
2018-04-11T14:22:41.225Z,20.50
2018-04-11T14:25:10.130Z,20.40
2018-04-11T14:27:39.033Z,20.50
2018-04-11T14:30:08.736Z,20.60
2018-04-11T14:32:38.387Z,20.50
2018-04-11T14:35:07.326Z,20.50
2018-04-11T14:37:36.306Z,20.50
2018-04-11T14:40:05.239Z,20.60
2018-04-11T14:42:34.216Z,20.60
2018-04-11T14:45:03.159Z,20.60
2018-04-11T14:47:32.074Z,20.60
2018-04-11T14:50:01.015Z,20.70
2018-04-11T14:52:29.881Z,20.50
2018-04-11T14:54:58.809Z,20.50
2018-04-11T14:57:27.686Z,20.30
2018-04-11T14:59:56.610Z,20.30
2018-04-11T15:02:25.502Z,20.30
2018-04-11T15:04:54.437Z,20.40
2018-04-11T15:07:24.138Z,20.40
2018-04-11T15:09:52.999Z,20.40
2018-04-11T15:12:21.921Z,20.30
2018-04-11T15:14:50.913Z,20.30
2018-04-11T15:17:21.347Z,20.30
2018-04-11T15:19:50.731Z,20.30
2018-04-11T15:22:19.744Z,20.20
2018-04-11T15:24:48.631Z,20.40
2018-04-11T15:27:18.281Z,20.20
2018-04-11T15:29:47.304Z,20.20
2018-04-11T15:32:16.226Z,20.10
2018-04-11T15:34:45.264Z,20.10
2018-04-11T15:37:14.138Z,20.20
2018-04-11T15:39:43.076Z,20.20
2018-04-11T15:42:11.988Z,20.20
2018-04-11T15:44:41.042Z,20.20
2018-04-11T15:47:09.972Z,20.20
2018-04-11T15:49:39.628Z,20.10
2018-04-11T15:52:08.499Z,20.10
2018-04-11T15:54:37.394Z,20.00
2018-04-11T15:57:06.383Z,20.10
2018-04-11T15:59:35.273Z,20.10
2018-04-11T16:02:04.215Z,20.10
2018-04-11T16:04:33.212Z,20.10
2018-04-11T16:07:02.109Z,20.10
2018-04-11T16:09:30.970Z,20.10
2018-04-11T16:11:59.899Z,20.00
2018-04-11T16:14:28.793Z,19.90
2018-04-11T16:16:58.485Z,19.90
2018-04-11T16:19:27.386Z,20.00
2018-04-11T16:21:57.021Z,19.90
2018-04-11T16:24:25.923Z,19.90
2018-04-11T16:26:54.910Z,19.90
2018-04-11T16:29:23.848Z,19.90
2018-04-11T16:31:52.744Z,19.90
2018-04-11T16:34:21.676Z,19.90
2018-04-11T16:36:50.551Z,19.90
2018-04-11T16:39:19.527Z,19.80
2018-04-11T16:41:49.940Z,19.80
2018-04-11T16:44:18.820Z,19.80
2018-04-11T16:46:47.892Z,19.70
2018-04-11T16:49:16.984Z,19.70
2018-04-11T16:51:46.725Z,19.60
2018-04-11T16:54:15.635Z,19.60
2018-04-11T16:56:44.530Z,19.60
2018-04-11T16:59:14.247Z,19.50
2018-04-11T17:01:43.377Z,19.50
2018-04-11T17:04:12.418Z,19.50
2018-04-11T17:06:41.434Z,19.50
2018-04-11T17:09:11.095Z,19.40
2018-04-11T17:11:40.067Z,19.40
2018-04-11T17:14:09.060Z,19.40
2018-04-11T17:16:38.005Z,19.40
2018-04-11T17:19:07.739Z,19.30
2018-04-11T17:21:54.283Z,19.30
2018-04-11T17:24:41.119Z,19.30
2018-04-11T17:27:27.873Z,19.20
2018-04-11T17:30:14.651Z,19.10
2018-04-11T17:32:44.400Z,19.10
2018-04-11T17:35:13.324Z,19.10
2018-04-11T17:37:42.988Z,19.00
2018-04-11T17:40:11.904Z,19.00
2018-04-11T17:42:40.840Z,19.00
2018-04-11T17:45:10.564Z,18.90
2018-04-11T17:47:39.507Z,18.90
2018-04-11T17:50:08.438Z,18.90
2018-04-11T17:52:38.430Z,18.80
2018-04-11T17:55:07.337Z,18.80
2018-04-11T17:57:36.284Z,18.90
2018-04-11T18:00:05.305Z,18.80
2018-04-11T18:02:34.294Z,18.70
2018-04-11T18:05:03.182Z,18.60
2018-04-11T18:07:32.768Z,18.50
2018-04-11T18:10:01.610Z,18.40
2018-04-11T18:12:31.269Z,18.30
2018-04-11T18:15:00.159Z,18.30
2018-04-11T18:17:29.050Z,18.20
2018-04-11T18:19:58.281Z,18.10
2018-04-11T18:22:27.297Z,18.00
2018-04-11T18:24:56.945Z,17.90
2018-04-11T18:27:25.860Z,17.90
2018-04-11T18:29:54.878Z,17.90
2018-04-11T18:32:24.537Z,17.90
2018-04-11T18:34:53.461Z,17.80
2018-04-11T18:37:22.409Z,17.80
2018-04-11T18:39:52.221Z,17.80
2018-04-11T18:42:21.144Z,17.70
2018-04-11T18:44:50.071Z,17.70
2018-04-11T18:47:20.194Z,17.70
2018-04-11T18:49:49.772Z,17.60
2018-04-11T18:52:18.718Z,17.50
2018-04-11T18:54:47.617Z,17.50
2018-04-11T18:57:16.555Z,17.40
2018-04-11T18:59:45.456Z,17.40
2018-04-11T19:02:14.685Z,17.30
2018-04-11T19:04:44.016Z,17.30
2018-04-11T19:07:12.909Z,17.30
2018-04-11T19:09:42.606Z,17.20
2018-04-11T19:12:11.503Z,17.20
2018-04-11T19:14:40.433Z,17.20
2018-04-11T19:17:09.353Z,17.30
2018-04-11T19:19:38.252Z,17.30
2018-04-11T19:22:07.193Z,17.20
2018-04-11T19:24:36.096Z,17.10
2018-04-11T19:27:05.059Z,17.10
2018-04-11T19:29:33.933Z,17.10
2018-04-11T19:32:02.909Z,17.00
2018-04-11T19:34:31.824Z,17.00
2018-04-11T19:37:00.867Z,16.90
2018-04-11T19:39:30.588Z,17.00
2018-04-11T19:42:00.325Z,16.90
2018-04-11T19:44:29.322Z,16.90
2018-04-11T19:46:58.355Z,16.90
2018-04-11T19:49:27.285Z,17.00
2018-04-11T19:51:57.710Z,16.90
2018-04-11T19:54:26.609Z,16.90
2018-04-11T19:56:55.585Z,16.80
2018-04-11T19:59:25.289Z,16.80
2018-04-11T20:01:54.962Z,16.60
2018-04-11T20:04:23.901Z,16.50
2018-04-11T20:06:53.642Z,16.40
2018-04-11T20:09:23.064Z,16.40
2018-04-11T20:11:52.003Z,16.40
2018-04-11T20:14:21.027Z,16.40
2018-04-11T20:16:50.344Z,16.40
2018-04-11T20:19:19.449Z,16.30
2018-04-11T20:21:48.378Z,16.10
2018-04-11T20:24:18.118Z,16.30
2018-04-11T20:26:46.998Z,16.20
2018-04-11T20:29:15.858Z,16.00
2018-04-11T20:31:45.598Z,16.10
2018-04-11T20:34:14.616Z,16.00
2018-04-11T20:36:43.534Z,16.00
2018-04-11T20:39:12.842Z,16.00
2018-04-11T20:41:41.973Z,16.10
2018-04-11T20:44:10.913Z,16.00
2018-04-11T20:46:39.877Z,15.90
2018-04-11T20:49:08.846Z,16.00
2018-04-11T20:51:37.761Z,16.00
2018-04-11T20:54:06.676Z,16.00
2018-04-11T20:56:35.588Z,15.80
2018-04-11T20:59:04.531Z,15.90
2018-04-11T21:01:33.489Z,15.90
2018-04-11T21:04:03.253Z,15.50
2018-04-11T21:06:32.221Z,15.50
2018-04-11T21:09:01.118Z,15.60
2018-04-11T21:11:30.209Z,15.30
2018-04-11T21:13:59.257Z,15.40
2018-04-11T21:16:28.176Z,15.60
2018-04-11T21:18:57.072Z,15.80
2018-04-11T21:21:25.957Z,15.90
2018-04-11T21:23:54.917Z,15.90
2018-04-11T21:26:23.814Z,15.90
2018-04-11T21:28:52.769Z,15.90
2018-04-11T21:31:21.709Z,16.00
2018-04-11T21:33:50.671Z,16.10
2018-04-11T21:36:19.627Z,16.10
2018-04-11T21:38:48.519Z,15.80
2018-04-11T21:41:17.435Z,15.60
2018-04-11T21:43:46.313Z,15.60
2018-04-11T21:46:16.047Z,15.70
2018-04-11T21:48:44.954Z,15.60
2018-04-11T21:51:13.906Z,15.60
2018-04-11T21:53:42.915Z,15.60
2018-04-11T21:56:11.812Z,15.60
2018-04-11T21:58:40.718Z,15.50
2018-04-11T22:01:09.640Z,15.50
2018-04-11T22:03:38.511Z,15.50
2018-04-11T22:06:08.221Z,15.30
2018-04-11T22:08:37.888Z,15.30
2018-04-11T22:11:06.814Z,15.30
2018-04-11T22:13:36.420Z,15.40
2018-04-11T22:16:09.196Z,15.40
2018-04-11T22:18:38.144Z,15.30
2018-04-11T22:21:06.995Z,15.00
2018-04-11T22:27:17.461Z,15.20
2018-04-11T22:29:59.123Z,15.20
2018-04-11T22:32:28.013Z,15.00
2018-04-11T22:34:56.922Z,14.90
2018-04-11T22:37:25.863Z,14.90
2018-04-11T22:39:54.810Z,14.90
2018-04-11T22:42:23.698Z,14.80
2018-04-11T22:44:54.316Z,14.90
2018-04-11T22:47:23.211Z,14.90
2018-04-11T22:49:52.100Z,14.80
2018-04-11T22:52:21.034Z,14.60
2018-04-11T22:54:50.672Z,14.50
2018-04-11T22:57:19.555Z,14.50
2018-04-11T22:59:48.512Z,14.60
2018-04-11T23:02:17.477Z,14.50
2018-04-11T23:04:46.384Z,14.50
2018-04-11T23:07:15.354Z,14.60
2018-04-11T23:09:44.290Z,14.60
2018-04-11T23:12:13.250Z,14.50
2018-04-11T23:14:42.181Z,14.60
2018-04-11T23:17:11.080Z,14.60
2018-04-11T23:19:39.997Z,14.60
2018-04-11T23:22:09.035Z,14.70
2018-04-11T23:24:38.732Z,14.70
2018-04-11T23:27:07.622Z,14.70
2018-04-11T23:29:36.529Z,14.80
2018-04-11T23:32:06.177Z,14.70
2018-04-11T23:34:35.093Z,14.70
2018-04-11T23:37:04.751Z,14.50
2018-04-11T23:39:33.897Z,14.50
2018-04-11T23:42:02.797Z,14.40
2018-04-11T23:44:31.794Z,14.30
2018-04-11T23:47:00.710Z,14.30
2018-04-11T23:49:30.816Z,14.40
2018-04-11T23:51:59.741Z,14.30
2018-04-11T23:54:28.634Z,14.40
2018-04-11T23:56:57.529Z,14.40
2018-04-11T23:59:26.456Z,14.50
